Time;durP1;ratioP1;P1;durP2;ratioP2;P2;SDS_P1;SDS_P2;PMS_P1;PMS_P2;Temp;Humidity;BMP_temperature;BMP_pressure;BME280_temperature;BME280_humidity;BME280_pressure;Samples;Min_cycle;Max_cycle;Signal;HPM_P1;HPM_P2
2023/08/23 00:00:16;;;;;;;6.25;4.05;;;16.50;99.90;;;;;;5096660;28;20077;-92
2023/08/23 00:02:46;;;;;;;6.03;4.00;;;16.40;99.90;;;;;;5096566;28;20131;-93
2023/08/23 00:05:12;;;;;;;7.40;4.00;;;16.40;99.90;;;;;;5113258;28;20093;-92
2023/08/23 00:07:39;;;;;;;8.32;4.18;;;16.40;99.90;;;;;;5080096;28;20044;-92
2023/08/23 00:10:10;;;;;;;7.07;4.25;;;16.30;99.90;;;;;;5096170;28;20040;-92
2023/08/23 00:12:37;;;;;;;7.30;4.40;;;16.30;99.90;;;;;;5096310;28;20043;-92
2023/08/23 00:15:07;;;;;;;6.75;4.22;;;16.40;99.90;;;;;;5096112;28;20061;-93
2023/08/23 00:17:36;;;;;;;6.43;4.00;;;16.30;99.90;;;;;;5113553;28;20032;-92
2023/08/23 00:20:04;;;;;;;8.00;3.97;;;16.30;99.90;;;;;;5079566;28;20046;-93
2023/08/23 00:22:34;;;;;;;6.47;4.00;;;16.30;99.90;;;;;;5096788;28;20500;-93
2023/08/23 00:25:01;;;;;;;6.68;3.60;;;16.30;99.90;;;;;;5096310;28;20044;-93
2023/08/23 00:27:31;;;;;;;6.93;4.53;;;16.20;99.90;;;;;;5096453;28;20131;-93
2023/08/23 00:29:57;;;;;;;8.98;4.22;;;16.20;99.90;;;;;;5096264;28;20040;-91
2023/08/23 00:32:24;;;;;;;8.18;4.57;;;16.20;99.90;;;;;;5079279;28;20059;-92
2023/08/23 00:34:51;;;;;;;11.05;4.40;;;16.20;99.90;;;;;;5096321;28;20470;-92
2023/08/23 00:37:19;;;;;;;8.05;4.30;;;16.20;99.90;;;;;;5078974;28;20075;-92
2023/08/23 00:39:48;;;;;;;6.25;4.18;;;16.10;99.90;;;;;;5095859;28;20040;-92
2023/08/23 00:42:15;;;;;;;7.30;4.13;;;16.10;99.90;;;;;;5095480;28;20040;-92
2023/08/23 00:44:42;;;;;;;6.57;4.30;;;16.10;99.90;;;;;;5095790;28;20055;-91
2023/08/23 00:47:16;;;;;;;7.60;4.43;;;16.10;99.90;;;;;;5095261;28;20476;-92
2023/08/23 00:49:46;;;;;;;7.57;4.40;;;16.10;99.90;;;;;;5096340;28;20040;-92
2023/08/23 00:52:14;;;;;;;7.90;4.38;;;16.00;99.90;;;;;;5112638;28;20040;-91
2023/08/23 00:54:41;;;;;;;6.53;4.07;;;16.00;99.90;;;;;;5096148;28;20040;-92
2023/08/23 00:57:08;;;;;;;7.18;4.40;;;16.00;99.90;;;;;;5091899;28;20409;-92
2023/08/23 00:59:36;;;;;;;6.30;4.25;;;16.00;99.90;;;;;;5092361;28;20053;-93
2023/08/23 01:02:02;;;;;;;9.73;5.00;;;15.80;99.90;;;;;;5091720;28;20476;-91
2023/08/23 01:04:32;;;;;;;8.07;4.38;;;15.90;99.90;;;;;;5092389;28;20037;-92
2023/08/23 01:07:19;;;;;;;8.35;4.70;;;15.90;99.90;;;;;;5092798;28;20036;-92
2023/08/23 01:10:04;;;;;;;7.10;4.88;;;15.90;99.90;;;;;;5093090;28;20040;-92
2023/08/23 01:13:01;;;;;;;7.05;4.47;;;15.90;99.90;;;;;;5091713;28;20039;-93
2023/08/23 01:15:30;;;;;;;8.43;4.72;;;15.90;99.90;;;;;;5108576;28;20094;-93
2023/08/23 01:17:58;;;;;;;6.32;4.43;;;15.80;99.90;;;;;;5092756;28;20135;-93
2023/08/23 01:20:25;;;;;;;9.00;4.80;;;15.80;99.90;;;;;;5091803;28;20049;-92
2023/08/23 01:22:57;;;;;;;7.57;4.60;;;15.80;99.90;;;;;;5075568;28;20094;-92
2023/08/23 01:25:24;;;;;;;8.18;4.70;;;15.80;99.90;;;;;;5075545;28;20044;-92
2023/08/23 01:27:51;;;;;;;8.32;4.47;;;15.70;99.90;;;;;;5092382;28;20036;-92
2023/08/23 01:30:22;;;;;;;7.68;4.25;;;15.70;99.90;;;;;;5092091;28;20032;-93
2023/08/23 01:33:32;;;;;;;7.13;4.80;;;15.80;99.90;;;;;;5075888;28;20488;-94
2023/08/23 01:36:27;;;;;;;7.78;4.95;;;15.80;99.90;;;;;;5100123;28;20059;-94
2023/08/23 01:39:00;;;;;;;7.20;4.82;;;15.60;99.90;;;;;;5093055;28;20047;-93
2023/08/23 01:41:30;;;;;;;8.48;5.13;;;15.60;99.90;;;;;;5092041;28;20076;-93
2023/08/23 01:43:57;;;;;;;9.23;4.72;;;15.60;99.90;;;;;;5092392;28;20082;-92
2023/08/23 01:46:24;;;;;;;9.95;5.10;;;15.60;99.90;;;;;;5091934;28;20139;-93
2023/08/23 01:48:51;;;;;;;7.32;4.90;;;15.60;99.90;;;;;;5075314;28;20041;-92
2023/08/23 01:51:18;;;;;;;8.05;4.85;;;15.60;99.90;;;;;;5091563;28;20473;-93
2023/08/23 01:53:48;;;;;;;9.07;5.05;;;15.60;99.90;;;;;;5091946;28;20515;-93
2023/08/23 01:56:15;;;;;;;8.13;4.97;;;15.60;99.90;;;;;;5090766;28;20048;-92
2023/08/23 01:58:50;;;;;;;8.40;4.65;;;15.60;99.90;;;;;;5092027;28;20165;-93
2023/08/23 02:01:27;;;;;;;7.97;5.32;;;15.50;99.90;;;;;;5091499;28;20080;-92
2023/08/23 02:03:54;;;;;;;10.02;5.10;;;15.60;99.90;;;;;;5091922;28;20044;-92
2023/08/23 02:06:21;;;;;;;8.90;5.00;;;15.60;99.90;;;;;;5091536;28;20052;-91
2023/08/23 02:08:47;;;;;;;7.35;4.65;;;15.60;99.90;;;;;;5092015;28;20037;-93
2023/08/23 02:11:14;;;;;;;9.90;5.28;;;15.60;99.90;;;;;;5091248;28;20059;-93
2023/08/23 02:13:41;;;;;;;8.07;4.75;;;15.50;99.90;;;;;;5091687;28;20080;-93
2023/08/23 02:16:08;;;;;;;9.40;5.13;;;15.50;99.90;;;;;;5091789;28;20044;-93
2023/08/23 02:18:35;;;;;;;7.68;4.70;;;15.50;99.90;;;;;;5091088;28;20055;-93
2023/08/23 02:21:02;;;;;;;8.95;4.88;;;15.50;99.90;;;;;;5091625;28;20038;-93
2023/08/23 02:23:29;;;;;;;7.40;5.00;;;15.50;99.90;;;;;;5090739;28;20036;-93
2023/08/23 02:25:56;;;;;;;8.27;5.25;;;15.50;99.90;;;;;;5090870;28;20060;-93
2023/08/23 02:28:32;;;;;;;7.75;5.18;;;15.50;99.90;;;;;;5091032;28;20040;-94
2023/08/23 02:31:04;;;;;;;8.70;5.20;;;15.50;99.90;;;;;;5090787;28;20041;-93
2023/08/23 02:33:31;;;;;;;8.52;5.05;;;15.50;99.90;;;;;;5090923;28;20037;-93
2023/08/23 02:36:03;;;;;;;7.85;5.18;;;15.50;99.90;;;;;;5092357;28;20045;-93
2023/08/23 02:38:36;;;;;;;6.90;4.47;;;15.50;99.90;;;;;;5090732;28;20040;-93
2023/08/23 02:41:03;;;;;;;7.40;4.72;;;15.40;99.90;;;;;;5090684;28;20036;-93
2023/08/23 02:43:30;;;;;;;8.45;4.80;;;15.40;99.90;;;;;;5091073;28;20045;-94
2023/08/23 02:46:00;;;;;;;8.10;4.70;;;15.50;99.90;;;;;;5091176;28;20127;-93
2023/08/23 02:48:29;;;;;;;9.60;5.22;;;15.40;99.90;;;;;;5090935;28;20047;-93
2023/08/23 02:50:57;;;;;;;7.97;4.85;;;15.60;99.90;;;;;;5076150;28;20048;-94
2023/08/23 02:53:24;;;;;;;7.88;5.10;;;15.10;99.90;;;;;;5090466;28;20489;-93
2023/08/23 02:59:58;;;;;;;9.07;4.57;;;15.40;99.90;;;;;;5111054;28;20055;-93
2023/08/23 03:02:34;;;;;;;10.13;4.55;;;15.30;99.90;;;;;;5060775;28;20054;-94
2023/08/23 03:05:01;;;;;;;11.80;4.78;;;15.30;99.90;;;;;;5110822;28;20048;-93
2023/08/23 03:07:28;;;;;;;8.45;5.03;;;15.30;99.90;;;;;;5093672;28;20032;-90
2023/08/23 03:09:55;;;;;;;8.55;4.85;;;15.30;99.90;;;;;;5094261;28;20058;-92
2023/08/23 03:12:24;;;;;;;8.23;4.72;;;15.30;99.90;;;;;;5094527;28;20036;-92
2023/08/23 03:14:54;;;;;;;8.35;5.15;;;15.30;99.90;;;;;;5094303;28;20055;-92
2023/08/23 03:17:21;;;;;;;7.28;4.95;;;15.30;99.90;;;;;;5094354;28;20653;-92
2023/08/23 03:20:02;;;;;;;10.35;5.43;;;15.30;99.90;;;;;;5094020;28;20051;-92
2023/08/23 03:22:37;;;;;;;7.75;4.65;;;15.20;99.90;;;;;;5094770;28;20051;-93
2023/08/23 03:25:04;;;;;;;8.60;4.80;;;15.30;99.90;;;;;;5111256;28;20048;-91
2023/08/23 03:27:31;;;;;;;7.65;4.80;;;15.20;99.90;;;;;;5093642;28;20044;-92
2023/08/23 03:29:59;;;;;;;7.68;4.88;;;15.20;99.90;;;;;;5094352;28;20555;-91
2023/08/23 03:32:28;;;;;;;7.47;4.50;;;15.20;99.90;;;;;;5094210;28;20040;-92
2023/08/23 03:34:55;;;;;;;11.20;5.40;;;15.20;99.90;;;;;;5095478;28;20093;-91
2023/08/23 03:37:31;;;;;;;8.13;4.60;;;15.20;99.90;;;;;;5097638;28;20044;-91
2023/08/23 03:40:02;;;;;;;;;;;15.00;99.90;;;;;;5097882;28;20040;-91
2023/08/23 03:42:30;;;;;;;9.98;4.93;;;15.20;99.90;;;;;;5097815;28;20280;-92
2023/08/23 03:44:57;;;;;;;9.98;5.40;;;15.20;99.90;;;;;;5097651;28;20044;-91
2023/08/23 03:47:26;;;;;;;8.13;4.95;;;15.20;99.90;;;;;;5097349;28;20028;-91
2023/08/23 03:49:56;;;;;;;9.00;5.20;;;15.30;99.90;;;;;;5081028;28;20040;-92
2023/08/23 03:52:26;;;;;;;10.43;5.63;;;15.30;99.90;;;;;;5097391;28;20074;-90
2023/08/23 03:54:56;;;;;;;14.07;6.15;;;15.20;99.90;;;;;;5097843;28;20036;-91
2023/08/23 03:57:34;;;;;;;8.75;6.20;;;15.30;99.90;;;;;;5097075;28;20516;-92
2023/08/23 04:00:04;;;;;;;8.32;5.63;;;15.30;99.90;;;;;;5097568;28;20488;-91
2023/08/23 04:02:33;;;;;;;10.02;6.40;;;15.20;99.90;;;;;;5097261;28;20130;-92
2023/08/23 04:05:11;;;;;;;11.88;6.10;;;15.30;99.90;;;;;;5097679;28;20040;-92
2023/08/23 04:07:39;;;;;;;17.08;5.82;;;15.30;99.90;;;;;;5081851;28;20090;-91
2023/08/23 04:10:09;;;;;;;9.10;5.75;;;15.30;99.90;;;;;;5096997;28;20036;-91
2023/08/23 04:12:36;;;;;;;10.73;5.43;;;15.20;99.90;;;;;;5096805;28;20036;-92
2023/08/23 04:15:03;;;;;;;10.07;6.07;;;15.30;99.90;;;;;;5096807;28;20093;-90
2023/08/23 04:17:30;;;;;;;9.13;5.93;;;15.30;99.90;;;;;;5080516;28;20047;-91
2023/08/23 04:19:58;;;;;;;10.07;5.82;;;15.40;99.90;;;;;;5096763;28;20496;-93
2023/08/23 04:22:30;;;;;;;13.43;6.35;;;15.30;99.90;;;;;;5097067;28;20058;-92
2023/08/23 04:24:57;;;;;;;10.68;6.50;;;15.40;99.90;;;;;;5080329;28;20044;-92
2023/08/23 04:27:24;;;;;;;11.63;6.63;;;15.40;99.90;;;;;;5096885;28;20086;-92
2023/08/23 04:30:07;;;;;;;10.88;6.30;;;15.40;99.90;;;;;;5096374;28;20047;-91
2023/08/23 04:32:34;;;;;;;9.55;6.10;;;15.40;99.90;;;;;;5096114;28;20066;-91
2023/08/23 04:35:01;;;;;;;10.30;6.47;;;15.30;99.90;;;;;;5096503;28;20181;-91
2023/08/23 04:37:31;;;;;;;10.00;6.45;;;15.40;99.90;;;;;;5096913;28;20047;-91
2023/08/23 04:40:03;;;;;;;11.25;6.45;;;15.50;99.90;;;;;;5096679;28;20036;-92
2023/08/23 04:42:34;;;;;;;10.80;6.28;;;15.50;99.90;;;;;;5096630;28;20051;-91
2023/08/23 04:45:01;;;;;;;10.55;5.95;;;15.50;99.90;;;;;;5096464;28;20058;-92
2023/08/23 04:47:33;;;;;;;9.48;5.95;;;15.50;99.90;;;;;;5080072;28;20564;-92
2023/08/23 04:50:04;;;;;;;12.57;6.55;;;15.50;99.90;;;;;;5080065;28;20086;-91
2023/08/23 04:52:31;;;;;;;11.13;6.35;;;15.60;99.90;;;;;;5096576;28;20040;-92
2023/08/23 04:55:01;;;;;;;11.43;6.07;;;15.60;99.90;;;;;;5097104;28;20404;-91
2023/08/23 04:57:30;;;;;;;15.60;6.25;;;15.60;99.90;;;;;;5096103;28;20051;-92
2023/08/23 04:59:57;;;;;;;11.75;5.75;;;15.60;99.90;;;;;;5079528;28;20135;-92
2023/08/23 05:02:27;;;;;;;10.48;5.88;;;15.70;99.90;;;;;;5079926;28;20050;-92
2023/08/23 05:05:03;;;;;;;12.07;6.22;;;15.70;99.90;;;;;;5095434;28;20071;-91
2023/08/23 05:07:30;;;;;;;14.13;6.53;;;15.80;99.90;;;;;;5096164;28;20036;-92
2023/08/23 05:10:01;;;;;;;11.73;6.43;;;15.80;99.90;;;;;;5095317;28;20047;-92
2023/08/23 05:12:34;;;;;;;10.60;5.63;;;15.90;99.90;;;;;;5095809;28;20039;-92
2023/08/23 05:15:00;;;;;;;11.65;6.88;;;15.90;99.90;;;;;;5079548;28;20790;-91
2023/08/23 05:17:30;;;;;;;10.32;6.10;;;15.90;99.90;;;;;;5079305;28;20096;-92
2023/08/23 05:20:03;;;;;;;11.15;6.40;;;16.00;99.90;;;;;;5095549;28;20075;-91
2023/08/23 05:22:35;;;;;;;12.10;6.60;;;16.00;99.90;;;;;;5095598;28;20400;-91
2023/08/23 05:25:06;;;;;;;10.45;6.65;;;16.10;99.90;;;;;;5080801;28;20043;-91
2023/08/23 05:27:33;;;;;;;12.00;6.90;;;16.10;99.90;;;;;;5095662;28;20185;-92
2023/08/23 05:30:06;;;;;;;14.02;6.97;;;16.10;99.90;;;;;;5095710;28;20040;-91
2023/08/23 05:32:35;;;;;;;12.23;6.43;;;16.20;99.90;;;;;;5079710;28;20867;-92
2023/08/23 05:35:03;;;;;;;14.25;6.20;;;16.20;99.90;;;;;;5079050;28;20044;-92
2023/08/23 05:37:30;;;;;;;14.00;6.95;;;16.20;99.90;;;;;;5062984;28;20050;-92
2023/08/23 05:39:57;;;;;;;13.68;6.80;;;16.10;99.90;;;;;;5078704;28;20480;-91
2023/08/23 05:42:30;;;;;;;13.07;7.00;;;16.30;99.90;;;;;;5095503;28;20044;-92
2023/08/23 05:45:00;;;;;;;12.48;6.72;;;16.30;99.90;;;;;;5096574;28;20040;-96
2023/08/23 05:47:29;;;;;;;12.55;7.15;;;16.30;99.90;;;;;;5078985;28;20044;-92
2023/08/23 05:50:12;;;;;;;12.45;6.97;;;16.20;99.90;;;;;;5065138;28;20118;-92
2023/08/23 05:52:42;;;;;;;12.07;6.90;;;16.40;99.90;;;;;;5097694;28;20083;-92
2023/08/23 05:55:14;;;;;;;13.27;6.55;;;16.30;99.90;;;;;;5095374;28;20123;-92
2023/08/23 05:57:42;;;;;;;11.63;6.78;;;16.50;99.90;;;;;;5077612;28;20048;-91
2023/08/23 06:00:11;;;;;;;13.95;7.85;;;16.50;99.90;;;;;;5078686;28;20058;-92
2023/08/23 06:02:43;;;;;;;10.18;6.82;;;16.50;99.90;;;;;;5095313;28;20511;-92
2023/08/23 06:05:11;;;;;;;13.65;7.65;;;16.40;99.90;;;;;;5112121;28;20126;-92
2023/08/23 06:07:38;;;;;;;11.98;7.00;;;16.40;99.90;;;;;;5078609;28;20491;-92
2023/08/23 06:10:06;;;;;;;15.82;7.72;;;16.50;99.90;;;;;;5094284;28;20056;-92
2023/08/23 06:12:33;;;;;;;15.18;8.60;;;16.40;99.90;;;;;;5095055;28;20476;-92
2023/08/23 06:15:04;;;;;;;12.85;7.78;;;16.40;99.90;;;;;;5094981;28;20051;-91
2023/08/23 06:17:34;;;;;;;15.30;8.18;;;16.50;99.90;;;;;;5095204;28;20070;-92
2023/08/23 06:20:13;;;;;;;13.93;8.52;;;16.50;99.90;;;;;;5095807;28;20090;-93
2023/08/23 06:23:00;;;;;;;14.77;7.90;;;16.60;99.90;;;;;;5094999;28;20043;-92
2023/08/23 06:25:33;;;;;;;12.85;8.18;;;16.70;99.90;;;;;;5098290;28;20044;-92
2023/08/23 06:28:00;;;;;;;14.02;8.30;;;16.70;99.90;;;;;;5094718;28;20047;-92
2023/08/23 06:30:30;;;;;;;14.70;8.65;;;16.80;99.90;;;;;;5094689;28;20078;-86
2023/08/23 06:32:56;;;;;;;15.10;9.00;;;16.90;99.90;;;;;;5110207;28;20051;-90
2023/08/23 06:35:24;;;;;;;15.95;9.00;;;16.90;99.90;;;;;;5094376;28;20494;-89
2023/08/23 06:37:51;;;;;;;17.73;9.05;;;17.00;99.90;;;;;;5077618;28;20071;-89
2023/08/23 06:40:18;;;;;;;15.63;9.40;;;17.00;99.90;;;;;;5077944;28;20095;-87
2023/08/23 06:42:45;;;;;;;14.55;9.15;;;17.10;99.90;;;;;;5094093;28;20061;-90
2023/08/23 06:45:12;;;;;;;18.38;10.18;;;17.10;99.90;;;;;;5077455;28;20245;-90
2023/08/23 06:47:39;;;;;;;15.70;9.95;;;17.20;99.90;;;;;;5093447;28;20040;-86
2023/08/23 06:50:06;;;;;;;16.08;9.77;;;17.30;99.90;;;;;;5092587;28;20082;-86
2023/08/23 06:52:33;;;;;;;18.38;10.27;;;17.40;99.90;;;;;;5093718;28;20040;-90
2023/08/23 06:55:00;;;;;;;18.35;10.73;;;17.50;99.90;;;;;;5093786;28;20395;-90
2023/08/23 06:57:30;;;;;;;21.92;12.45;;;17.60;99.90;;;;;;5076515;28;20131;-90
2023/08/23 06:59:58;;;;;;;21.55;13.68;;;17.70;99.90;;;;;;5075252;28;20052;-89
2023/08/23 07:02:26;;;;;;;19.27;12.43;;;17.70;99.90;;;;;;5090928;28;20052;-89
2023/08/23 07:04:53;;;;;;;23.45;13.48;;;17.80;99.90;;;;;;5090222;28;20504;-91
2023/08/23 07:07:21;;;;;;;22.33;13.82;;;17.90;99.90;;;;;;5074466;28;20131;-90
2023/08/23 07:09:59;;;;;;;20.13;12.88;;;18.00;99.90;;;;;;5093483;28;20123;-90
2023/08/23 07:12:27;;;;;;;21.08;13.00;;;18.00;99.90;;;;;;5094640;28;20110;-90
2023/08/23 07:14:54;;;;;;;20.40;13.15;;;18.10;99.90;;;;;;5077705;28;20073;-91
2023/08/23 07:17:21;;;;;;;25.15;13.57;;;18.10;99.90;;;;;;5077959;28;20044;-90
2023/08/23 07:19:48;;;;;;;21.00;13.35;;;18.20;99.90;;;;;;5094682;28;20484;-91
2023/08/23 07:22:15;;;;;;;23.30;14.23;;;18.30;99.90;;;;;;5077685;28;20044;-95
2023/08/23 07:24:52;;;;;;;19.30;13.15;;;18.40;99.90;;;;;;5098428;28;20399;-95
2023/08/23 07:27:19;;;;;;;20.20;13.50;;;18.50;99.90;;;;;;5094829;28;20044;-90
2023/08/23 07:29:46;;;;;;;19.27;12.98;;;18.50;99.90;;;;;;5078128;28;20048;-92
2023/08/23 07:32:13;;;;;;;22.52;13.15;;;18.50;99.90;;;;;;5094032;28;20074;-92
2023/08/23 07:34:40;;;;;;;22.42;14.32;;;18.40;99.90;;;;;;5094459;28;20044;-91
2023/08/23 07:37:07;;;;;;;21.83;12.85;;;18.40;99.90;;;;;;5094321;28;20044;-93
2023/08/23 07:39:38;;;;;;;22.42;12.90;;;18.40;99.90;;;;;;5094677;28;20439;-93
2023/08/23 07:42:05;;;;;;;21.20;13.13;;;18.50;99.90;;;;;;5094804;28;20396;-92
2023/08/23 07:44:35;;;;;;;17.38;11.07;;;18.50;99.90;;;;;;5094673;28;20079;-94
2023/08/23 07:47:32;;;;;;;17.45;10.88;;;18.70;99.90;;;;;;5077816;28;20618;-93
2023/08/23 07:50:02;;;;;;;16.48;10.27;;;18.70;99.90;;;;;;5081901;28;20048;-93
2023/08/23 07:52:32;;;;;;;16.63;10.52;;;18.80;99.90;;;;;;5094632;28;20066;-93
2023/08/23 07:55:01;;;;;;;14.55;9.70;;;18.90;99.90;;;;;;5094619;28;20043;-92
2023/08/23 07:57:31;;;;;;;14.88;8.50;;;18.90;99.90;;;;;;5106506;28;20078;-94
2023/08/23 08:00:02;;;;;;;11.45;8.23;;;19.10;99.90;;;;;;5115646;28;20056;-90
2023/08/23 08:02:30;;;;;;;14.38;8.57;;;19.10;99.90;;;;;;5096951;28;20097;-91
2023/08/23 08:04:57;;;;;;;15.48;8.45;;;19.20;99.90;;;;;;5097609;28;20121;-87
2023/08/23 08:07:24;;;;;;;11.35;8.05;;;19.40;99.90;;;;;;5096764;28;20083;-83
2023/08/23 08:09:50;;;;;;;10.13;7.47;;;19.50;99.90;;;;;;5097466;28;20040;-96
2023/08/23 08:12:17;;;;;;;8.82;6.25;;;19.70;99.90;;;;;;5081072;28;20044;-84
2023/08/23 08:14:46;;;;;;;10.85;6.97;;;20.00;99.90;;;;;;5097278;28;20040;-92
2023/08/23 08:17:13;;;;;;;10.68;6.50;;;20.10;99.90;;;;;;5096732;28;20168;-90
2023/08/23 08:19:46;;;;;;;10.85;6.50;;;20.20;99.90;;;;;;5097630;28;20047;-93
2023/08/23 08:22:13;;;;;;;13.07;6.78;;;20.20;99.90;;;;;;5096296;28;20039;-91
2023/08/23 08:24:40;;;;;;;9.57;6.78;;;20.30;99.90;;;;;;5097387;28;20044;-92
2023/08/23 08:27:09;;;;;;;9.50;5.97;;;20.20;99.90;;;;;;5105060;28;20050;-95
2023/08/23 08:30:17;;;;;;;13.15;6.90;;;20.30;99.90;;;;;;5099144;28;20461;-95
2023/08/23 08:33:29;;;;;;;;;;;;;;;;;;;;;
2023/08/23 08:36:02;;;;;;;8.23;5.18;;;20.50;99.90;;;;;;5110973;28;20055;-93
2023/08/23 08:38:49;;;;;;;6.63;4.60;;;20.50;99.90;;;;;;5097555;28;20043;-94
2023/08/23 08:41:16;;;;;;;8.57;4.68;;;20.60;99.90;;;;;;5096603;28;20047;-94
2023/08/23 08:43:48;;;;;;;8.07;4.47;;;20.70;99.90;;;;;;5096682;28;20040;-91
2023/08/23 08:46:33;;;;;;;7.95;4.25;;;20.80;99.90;;;;;;5097102;28;20035;-95
2023/08/23 08:49:39;;;;;;;;;;;;;;;;;;;;;
2023/08/23 08:53:09;;;;;;;8.98;3.90;;;21.00;99.90;;;;;;5118039;28;19915;-95
2023/08/23 08:56:03;;;;;;;9.80;4.10;;;21.20;99.90;;;;;;5082844;28;20510;-95
2023/08/23 08:59:14;;;;;;;5.88;4.10;;;21.30;99.90;;;;;;5114673;28;20119;-95
2023/08/23 09:02:03;;;;;;;8.15;4.32;;;21.60;99.90;;;;;;5082595;28;20115;-94
2023/08/23 09:04:46;;;;;;;5.57;3.40;;;21.60;99.90;;;;;;5097692;28;20036;-96
2023/08/23 09:07:51;;;;;;;6.63;3.65;;;21.70;99.90;;;;;;5080949;28;20131;-95
2023/08/23 09:11:00;;;;;;;5.72;2.78;;;21.90;99.90;;;;;;5082485;28;20064;-95
2023/08/23 09:14:27;;;;;;;5.53;2.88;;;22.00;99.90;;;;;;5078296;28;20047;-96
2023/08/23 09:17:09;;;;;;;7.63;3.53;;;22.00;99.90;;;;;;5098773;28;20048;-96
2023/08/23 09:19:57;;;;;;;6.32;3.90;;;21.90;99.90;;;;;;5100502;28;20085;-95
2023/08/23 09:23:23;;;;;;;;;;;;;;;;;;;;;
2023/08/23 09:26:19;;;;;;;;;;;21.80;99.90;;;;;;5119834;28;20076;-95
2023/08/23 09:32:21;;;;;;;4.25;2.00;;;22.20;99.90;;;;;;5116841;28;20044;-95
2023/08/23 09:34:54;;;;;;;4.80;2.22;;;22.20;99.90;;;;;;5118207;28;20123;-96
2023/08/23 09:37:38;;;;;;;3.45;1.95;;;22.30;99.90;;;;;;5100184;28;20428;-95
2023/08/23 09:40:24;;;;;;;3.90;1.92;;;22.50;99.90;;;;;;5101095;28;20051;-96
2023/08/23 09:43:42;;;;;;;3.70;1.90;;;22.60;99.90;;;;;;5122178;28;20492;-95
2023/08/23 09:46:45;;;;;;;5.00;1.90;;;22.90;99.90;;;;;;5102101;28;20047;-96
2023/08/23 09:49:58;;;;;;;7.32;2.40;;;22.80;99.90;;;;;;5120534;28;20052;-95
2023/08/23 09:52:43;;;;;;;4.70;1.77;;;22.80;99.90;;;;;;5118268;28;20051;-96
2023/08/23 09:55:30;;;;;;;5.38;2.20;;;22.80;99.90;;;;;;5098728;28;20048;-96
2023/08/23 10:01:48;;;;;;;4.45;2.15;;;22.90;99.90;;;;;;5118688;28;20048;-95
2023/08/23 10:04:45;;;;;;;5.13;2.00;;;23.10;99.90;;;;;;5086689;28;20048;-96
2023/08/23 10:07:15;;;;;;;3.45;1.60;;;23.30;99.90;;;;;;5099363;28;20077;-96
2023/08/23 10:10:06;;;;;;;3.60;1.60;;;23.50;99.90;;;;;;5099295;28;20044;-95
2023/08/23 10:12:39;;;;;;;3.30;1.60;;;23.60;99.90;;;;;;5098896;28;20119;-96
2023/08/23 10:15:08;;;;;;;4.53;1.75;;;23.70;99.90;;;;;;5096621;28;20039;-90
2023/08/23 10:17:36;;;;;;;5.30;1.77;;;23.90;99.90;;;;;;5082539;28;20092;-91
2023/08/23 10:20:05;;;;;;;3.53;1.40;;;23.90;99.90;;;;;;5078255;28;20047;-91
2023/08/23 10:22:32;;;;;;;3.78;1.60;;;23.90;99.90;;;;;;5094884;28;20480;-92
2023/08/23 10:24:59;;;;;;;3.15;1.50;;;23.80;99.90;;;;;;5077848;28;20154;-91
2023/08/23 10:27:29;;;;;;;2.38;1.35;;;23.70;99.90;;;;;;5094004;28;20100;-95
2023/08/23 10:29:55;;;;;;;3.40;1.35;;;23.60;99.90;;;;;;5095252;28;20852;-91
2023/08/23 10:32:23;;;;;;;5.80;1.60;;;23.70;99.90;;;;;;5080005;28;20040;-94
2023/08/23 10:34:50;;;;;;;3.53;1.70;;;23.80;99.90;;;;;;5080907;28;20031;-92
2023/08/23 10:37:17;;;;;;;2.80;1.35;;;23.90;99.90;;;;;;5079862;28;20040;-95
2023/08/23 10:39:49;;;;;;;3.80;1.70;;;23.80;99.90;;;;;;5096882;28;20530;-93
2023/08/23 10:42:17;;;;;;;3.70;2.13;;;23.80;99.90;;;;;;5099629;28;20135;-91
2023/08/23 10:44:54;;;;;;;7.45;1.70;;;24.00;99.90;;;;;;5100149;28;20385;-92
2023/08/23 10:47:21;;;;;;;5.15;2.10;;;24.20;99.90;;;;;;5099986;28;20364;-92
2023/08/23 10:49:50;;;;;;;4.72;1.80;;;24.20;99.90;;;;;;5099200;28;20063;-93
2023/08/23 10:52:17;;;;;;;3.88;1.55;;;24.30;99.90;;;;;;5099331;28;20112;-92
2023/08/23 10:54:44;;;;;;;4.60;1.75;;;24.40;99.90;;;;;;5098285;28;20036;-90
2023/08/23 10:57:33;;;;;;;4.13;1.52;;;24.60;99.90;;;;;;5078988;28;20055;-95
2023/08/23 11:00:21;;;;;;;4.65;1.58;;;24.50;99.90;;;;;;5072713;28;20056;-94
2023/08/23 11:02:48;;;;;;;5.80;1.42;;;24.60;99.90;;;;;;5072024;28;20040;-92
2023/08/23 11:05:15;;;;;;;8.45;1.70;;;24.50;99.90;;;;;;5070346;28;20064;-89
2023/08/23 11:07:41;;;;;;;5.03;1.63;;;24.30;99.90;;;;;;5054070;28;20033;-89
2023/08/23 11:10:09;;;;;;;6.82;1.95;;;24.10;99.90;;;;;;5069607;28;20041;-87
2023/08/23 11:13:15;;;;;;;5.53;1.77;;;24.10;99.90;;;;;;5071320;28;20048;-93
2023/08/23 12:30:03;;;;;;;12.05;5.80;;;24.90;99.90;;;;;;5332095;23;20053;-94
2023/08/23 12:32:47;;;;;;;11.65;5.85;;;24.60;99.90;;;;;;4901973;29;20037;-93
2023/08/23 12:35:26;;;;;;;6.95;3.53;;;24.50;99.90;;;;;;4902725;29;20852;-96
2023/08/23 12:41:59;;;;;;;5.90;2.55;;;24.60;99.90;;;;;;4929970;29;20044;-95
2023/08/23 15:22:46;;;;;;;8.23;4.50;;;24.10;99.90;;;;;;4878001;29;20097;-96
2023/08/23 15:25:18;;;;;;;9.15;4.55;;;23.90;99.90;;;;;;4872438;29;20059;-96
2023/08/23 15:27:50;;;;;;;8.25;4.68;;;23.90;99.90;;;;;;5019078;24;20065;-92
2023/08/23 15:34:15;;;;;;;8.43;4.10;;;23.70;99.90;;;;;;4890195;29;20051;-94
2023/08/23 15:36:54;;;;;;;9.27;3.95;;;23.50;99.90;;;;;;4878401;29;20060;-95
2023/08/23 15:40:12;;;;;;;8.05;3.90;;;23.40;99.90;;;;;;4878409;29;20136;-93
2023/08/23 15:43:08;;;;;;;8.25;3.47;;;23.40;99.90;;;;;;4898127;29;20066;-94
2023/08/23 15:52:33;;;;;;;9.27;3.60;;;23.40;99.90;;;;;;4867590;29;20049;-94
2023/08/23 15:55:26;;;;;;;6.55;3.13;;;23.30;99.90;;;;;;4877274;29;20038;-95
2023/08/23 15:57:56;;;;;;;6.93;3.15;;;23.20;99.90;;;;;;4854670;29;20058;-96
2023/08/23 16:00:54;;;;;;;6.72;3.25;;;23.10;99.90;;;;;;4842333;29;20124;-92
2023/08/23 16:51:29;;;;;;;4.47;1.80;;;22.10;99.90;;;;;;2547229;24;20316;-94
2023/08/23 16:54:00;;;;;;;;;;;22.00;99.90;;;;;;4843118;29;20572;-92
2023/08/23 16:56:33;;;;;;;8.63;1.85;;;21.90;99.90;;;;;;4862669;29;19945;-93
2023/08/23 16:59:01;;;;;;;4.47;1.40;;;21.90;99.90;;;;;;4847908;29;20772;-92
2023/08/23 17:01:28;;;;;;;6.13;1.75;;;21.80;99.90;;;;;;4847476;29;20046;-92
2023/08/23 17:03:58;;;;;;;4.72;1.52;;;21.80;99.90;;;;;;4862084;29;20053;-93
2023/08/23 17:06:25;;;;;;;4.43;1.40;;;21.80;99.90;;;;;;4846519;29;20057;-92
2023/08/23 17:08:55;;;;;;;5.78;1.45;;;21.70;99.90;;;;;;4861942;29;20060;-88
2023/08/23 17:11:31;;;;;;;2.83;1.25;;;21.60;99.90;;;;;;4861923;29;20129;-90
2023/08/23 17:14:03;;;;;;;4.38;1.63;;;21.70;99.90;;;;;;4862674;29;20044;-93
2023/08/23 17:16:36;;;;;;;3.67;1.20;;;21.60;99.90;;;;;;4846504;29;20052;-92
2023/08/23 17:19:04;;;;;;;3.63;1.20;;;21.50;99.90;;;;;;4862162;29;20053;-92
2023/08/23 17:21:34;;;;;;;3.70;1.00;;;21.50;99.90;;;;;;4861936;29;20087;-93
2023/08/23 17:24:01;;;;;;;2.88;1.10;;;21.50;99.90;;;;;;4861778;29;20058;-93
2023/08/23 17:26:31;;;;;;;1.83;0.90;;;21.40;99.90;;;;;;4861796;29;20553;-91
2023/08/23 17:29:04;;;;;;;3.58;1.00;;;21.30;99.90;;;;;;4862055;29;20045;-92
2023/08/23 17:31:49;;;;;;;3.25;1.05;;;21.30;99.90;;;;;;4862492;29;20113;-91
2023/08/23 17:34:28;;;;;;;2.40;1.00;;;21.20;99.90;;;;;;4861117;29;20054;-93
2023/08/23 17:36:55;;;;;;;2.83;0.98;;;21.20;99.90;;;;;;4861207;29;20054;-88
2023/08/23 17:39:21;;;;;;;2.92;1.00;;;21.10;99.90;;;;;;4845469;29;20049;-86
2023/08/23 17:41:48;;;;;;;4.65;1.70;;;21.10;99.90;;;;;;4846966;29;20496;-90
2023/08/23 17:44:15;;;;;;;2.72;0.95;;;21.00;99.90;;;;;;4831122;29;20048;-86
2023/08/23 17:46:43;;;;;;;2.38;0.98;;;21.00;99.90;;;;;;4845810;29;20183;-82
2023/08/23 17:49:11;;;;;;;2.17;1.00;;;20.90;99.90;;;;;;4860693;29;20515;-92
2023/08/23 17:51:39;;;;;;;2.78;0.90;;;20.90;99.90;;;;;;4861049;29;20107;-92
2023/08/23 17:54:07;;;;;;;3.40;1.00;;;20.90;99.90;;;;;;4860058;29;20061;-88
2023/08/23 17:56:35;;;;;;;3.38;1.00;;;20.80;99.90;;;;;;4860467;29;20077;-88
2023/08/23 17:59:05;;;;;;;2.28;0.90;;;20.80;99.90;;;;;;4860817;29;20049;-88
2023/08/23 18:01:32;;;;;;;2.53;1.08;;;20.90;99.90;;;;;;4860492;29;20458;-90
2023/08/23 18:03:59;;;;;;;4.38;1.10;;;20.80;99.90;;;;;;4860253;29;20529;-89
2023/08/23 18:06:26;;;;;;;2.55;1.10;;;20.80;99.90;;;;;;4860279;29;20050;-89
2023/08/23 18:08:53;;;;;;;2.25;0.90;;;20.80;99.90;;;;;;4845401;29;20038;-89
2023/08/23 18:11:21;;;;;;;3.10;0.93;;;20.80;99.90;;;;;;4860377;29;20079;-89
2023/08/23 18:13:51;;;;;;;3.67;1.17;;;20.80;99.90;;;;;;4861051;29;20056;-89
2023/08/23 18:16:21;;;;;;;2.50;1.10;;;20.70;99.90;;;;;;4860879;29;20046;-89
2023/08/23 18:18:48;;;;;;;2.65;1.00;;;20.60;99.90;;;;;;4860941;29;20118;-89
2023/08/23 18:21:20;;;;;;;3.60;1.10;;;20.60;99.90;;;;;;4845795;29;20140;-89